sensor_id;sensor_type;location;lat;lon;timestamp;P1;durP1;ratioP1;P2;durP2;ratioP2
73841;SDS011;62184;52.006;5.924;2024-01-25T00:00:32;35.08;;;23.02;;
73841;SDS011;62184;52.006;5.924;2024-01-25T00:02:58;33.90;;;22.25;;
73841;SDS011;62184;52.006;5.924;2024-01-25T00:05:25;34.37;;;23.20;;
73841;SDS011;62184;52.006;5.924;2024-01-25T00:07:52;32.77;;;22.90;;
73841;SDS011;62184;52.006;5.924;2024-01-25T00:10:18;28.97;;;22.50;;
73841;SDS011;62184;52.006;5.924;2024-01-25T00:12:45;32.30;;;23.00;;
73841;SDS011;62184;52.006;5.924;2024-01-25T00:15:12;31.95;;;23.02;;
73841;SDS011;62184;52.006;5.924;2024-01-25T00:17:41;35.83;;;22.40;;
73841;SDS011;62184;52.006;5.924;2024-01-25T00:20:09;33.45;;;23.55;;
73841;SDS011;62184;52.006;5.924;2024-01-25T00:22:36;33.05;;;23.13;;
73841;SDS011;62184;52.006;5.924;2024-01-25T00:25:03;33.28;;;24.05;;
73841;SDS011;62184;52.006;5.924;2024-01-25T00:27:30;33.03;;;23.75;;
73841;SDS011;62184;52.006;5.924;2024-01-25T00:29:57;31.05;;;22.95;;
73841;SDS011;62184;52.006;5.924;2024-01-25T00:32:23;32.20;;;23.60;;
73841;SDS011;62184;52.006;5.924;2024-01-25T00:34:52;31.27;;;22.73;;
73841;SDS011;62184;52.006;5.924;2024-01-25T00:37:20;34.97;;;23.27;;
73841;SDS011;62184;52.006;5.924;2024-01-25T00:39:48;32.55;;;23.83;;
73841;SDS011;62184;52.006;5.924;2024-01-25T00:42:15;37.75;;;24.17;;
73841;SDS011;62184;52.006;5.924;2024-01-25T00:44:46;33.58;;;24.00;;
73841;SDS011;62184;52.006;5.924;2024-01-25T00:47:14;38.27;;;24.50;;
73841;SDS011;62184;52.006;5.924;2024-01-25T00:49:41;31.00;;;21.95;;
73841;SDS011;62184;52.006;5.924;2024-01-25T00:52:12;31.85;;;21.95;;
73841;SDS011;62184;52.006;5.924;2024-01-25T00:54:40;34.42;;;21.85;;
73841;SDS011;62184;52.006;5.924;2024-01-25T00:57:07;39.88;;;22.10;;
73841;SDS011;62184;52.006;5.924;2024-01-25T00:59:36;32.25;;;21.52;;
73841;SDS011;62184;52.006;5.924;2024-01-25T01:02:04;33.78;;;21.83;;
73841;SDS011;62184;52.006;5.924;2024-01-25T01:04:37;30.98;;;22.05;;
73841;SDS011;62184;52.006;5.924;2024-01-25T01:07:05;33.83;;;22.80;;
73841;SDS011;62184;52.006;5.924;2024-01-25T01:09:35;31.17;;;22.48;;
73841;SDS011;62184;52.006;5.924;2024-01-25T01:12:02;33.42;;;21.88;;
73841;SDS011;62184;52.006;5.924;2024-01-25T01:14:29;35.28;;;22.23;;
73841;SDS011;62184;52.006;5.924;2024-01-25T01:16:56;31.48;;;22.63;;
73841;SDS011;62184;52.006;5.924;2024-01-25T01:19:22;37.72;;;23.65;;
73841;SDS011;62184;52.006;5.924;2024-01-25T01:21:48;31.55;;;22.25;;
73841;SDS011;62184;52.006;5.924;2024-01-25T01:24:15;32.88;;;22.67;;
73841;SDS011;62184;52.006;5.924;2024-01-25T01:26:44;36.92;;;22.85;;
73841;SDS011;62184;52.006;5.924;2024-01-25T01:29:10;33.30;;;22.17;;
73841;SDS011;62184;52.006;5.924;2024-01-25T01:31:37;34.13;;;22.60;;
73841;SDS011;62184;52.006;5.924;2024-01-25T01:34:03;34.83;;;23.33;;
73841;SDS011;62184;52.006;5.924;2024-01-25T01:36:29;34.07;;;23.57;;
73841;SDS011;62184;52.006;5.924;2024-01-25T01:38:56;34.63;;;23.53;;
73841;SDS011;62184;52.006;5.924;2024-01-25T01:41:22;37.67;;;23.53;;
73841;SDS011;62184;52.006;5.924;2024-01-25T01:43:54;33.73;;;23.17;;
73841;SDS011;62184;52.006;5.924;2024-01-25T01:46:24;35.58;;;23.55;;
73841;SDS011;62184;52.006;5.924;2024-01-25T01:48:58;33.70;;;23.60;;
73841;SDS011;62184;52.006;5.924;2024-01-25T01:51:25;35.70;;;23.67;;
73841;SDS011;62184;52.006;5.924;2024-01-25T01:53:52;35.10;;;23.55;;
73841;SDS011;62184;52.006;5.924;2024-01-25T01:56:21;32.67;;;23.60;;
73841;SDS011;62184;52.006;5.924;2024-01-25T01:58:49;34.80;;;23.65;;
73841;SDS011;62184;52.006;5.924;2024-01-25T02:01:21;35.67;;;23.60;;
73841;SDS011;62184;52.006;5.924;2024-01-25T02:03:49;37.80;;;23.92;;
73841;SDS011;62184;52.006;5.924;2024-01-25T02:06:16;32.50;;;23.20;;
73841;SDS011;62184;52.006;5.924;2024-01-25T02:08:43;30.08;;;23.75;;
73841;SDS011;62184;52.006;5.924;2024-01-25T02:11:10;33.78;;;23.73;;
73841;SDS011;62184;52.006;5.924;2024-01-25T02:13:37;36.95;;;23.75;;
73841;SDS011;62184;52.006;5.924;2024-01-25T02:16:07;34.60;;;23.98;;
73841;SDS011;62184;52.006;5.924;2024-01-25T02:18:34;38.08;;;24.10;;
73841;SDS011;62184;52.006;5.924;2024-01-25T02:21:01;37.40;;;23.90;;
73841;SDS011;62184;52.006;5.924;2024-01-25T02:23:30;34.63;;;24.50;;
73841;SDS011;62184;52.006;5.924;2024-01-25T02:25:57;33.07;;;24.70;;
73841;SDS011;62184;52.006;5.924;2024-01-25T02:28:23;33.90;;;24.20;;
73841;SDS011;62184;52.006;5.924;2024-01-25T02:30:49;38.63;;;25.30;;
73841;SDS011;62184;52.006;5.924;2024-01-25T02:33:16;37.07;;;24.80;;
73841;SDS011;62184;52.006;5.924;2024-01-25T02:35:42;38.43;;;24.43;;
73841;SDS011;62184;52.006;5.924;2024-01-25T02:38:09;37.72;;;24.58;;
73841;SDS011;62184;52.006;5.924;2024-01-25T02:40:38;38.80;;;24.15;;
73841;SDS011;62184;52.006;5.924;2024-01-25T02:43:04;36.72;;;25.30;;
73841;SDS011;62184;52.006;5.924;2024-01-25T02:45:31;39.23;;;24.73;;
73841;SDS011;62184;52.006;5.924;2024-01-25T02:47:57;39.53;;;24.87;;
73841;SDS011;62184;52.006;5.924;2024-01-25T02:50:24;35.87;;;24.40;;
73841;SDS011;62184;52.006;5.924;2024-01-25T02:52:51;37.83;;;24.43;;
73841;SDS011;62184;52.006;5.924;2024-01-25T02:55:18;34.30;;;23.40;;
73841;SDS011;62184;52.006;5.924;2024-01-25T02:57:47;42.17;;;24.30;;
73841;SDS011;62184;52.006;5.924;2024-01-25T03:00:14;45.17;;;24.05;;
73841;SDS011;62184;52.006;5.924;2024-01-25T03:02:40;38.28;;;24.55;;
73841;SDS011;62184;52.006;5.924;2024-01-25T03:05:07;42.55;;;24.58;;
73841;SDS011;62184;52.006;5.924;2024-01-25T03:07:33;40.00;;;24.30;;
73841;SDS011;62184;52.006;5.924;2024-01-25T03:10:00;42.85;;;25.10;;
73841;SDS011;62184;52.006;5.924;2024-01-25T03:12:27;38.20;;;24.80;;
73841;SDS011;62184;52.006;5.924;2024-01-25T03:14:56;39.40;;;24.20;;
73841;SDS011;62184;52.006;5.924;2024-01-25T03:17:22;43.72;;;25.02;;
73841;SDS011;62184;52.006;5.924;2024-01-25T03:19:48;40.60;;;24.67;;
73841;SDS011;62184;52.006;5.924;2024-01-25T03:22:15;43.22;;;25.27;;
73841;SDS011;62184;52.006;5.924;2024-01-25T03:24:41;43.67;;;24.58;;
73841;SDS011;62184;52.006;5.924;2024-01-25T03:27:08;39.25;;;24.55;;
73841;SDS011;62184;52.006;5.924;2024-01-25T03:29:34;42.25;;;25.05;;
73841;SDS011;62184;52.006;5.924;2024-01-25T03:32:03;38.72;;;24.50;;
73841;SDS011;62184;52.006;5.924;2024-01-25T03:34:30;49.47;;;25.50;;
73841;SDS011;62184;52.006;5.924;2024-01-25T03:36:57;43.03;;;26.03;;
73841;SDS011;62184;52.006;5.924;2024-01-25T03:39:23;44.50;;;25.03;;
73841;SDS011;62184;52.006;5.924;2024-01-25T03:41:50;38.20;;;24.93;;
73841;SDS011;62184;52.006;5.924;2024-01-25T03:44:16;35.77;;;24.40;;
73841;SDS011;62184;52.006;5.924;2024-01-25T03:46:42;40.10;;;24.97;;
73841;SDS011;62184;52.006;5.924;2024-01-25T03:49:11;41.05;;;24.60;;
73841;SDS011;62184;52.006;5.924;2024-01-25T03:51:38;40.83;;;24.25;;
73841;SDS011;62184;52.006;5.924;2024-01-25T03:54:04;39.17;;;24.58;;
73841;SDS011;62184;52.006;5.924;2024-01-25T03:56:31;39.25;;;24.58;;
73841;SDS011;62184;52.006;5.924;2024-01-25T03:58:57;44.67;;;25.08;;
73841;SDS011;62184;52.006;5.924;2024-01-25T04:01:24;41.92;;;25.58;;
73841;SDS011;62184;52.006;5.924;2024-01-25T04:03:50;41.28;;;25.65;;
73841;SDS011;62184;52.006;5.924;2024-01-25T04:06:19;39.47;;;24.50;;
73841;SDS011;62184;52.006;5.924;2024-01-25T04:08:45;37.10;;;24.13;;
73841;SDS011;62184;52.006;5.924;2024-01-25T04:11:12;43.47;;;24.27;;
73841;SDS011;62184;52.006;5.924;2024-01-25T04:13:38;40.30;;;24.98;;
73841;SDS011;62184;52.006;5.924;2024-01-25T04:16:06;42.90;;;24.77;;
73841;SDS011;62184;52.006;5.924;2024-01-25T04:18:32;38.65;;;23.70;;
73841;SDS011;62184;52.006;5.924;2024-01-25T04:20:59;43.67;;;24.95;;
73841;SDS011;62184;52.006;5.924;2024-01-25T04:23:29;37.72;;;24.45;;
73841;SDS011;62184;52.006;5.924;2024-01-25T04:25:55;38.33;;;24.17;;
73841;SDS011;62184;52.006;5.924;2024-01-25T04:28:21;37.08;;;24.60;;
73841;SDS011;62184;52.006;5.924;2024-01-25T04:30:48;40.08;;;24.30;;
73841;SDS011;62184;52.006;5.924;2024-01-25T04:33:14;39.75;;;24.00;;
73841;SDS011;62184;52.006;5.924;2024-01-25T04:35:41;41.45;;;23.95;;
73841;SDS011;62184;52.006;5.924;2024-01-25T04:38:09;42.50;;;24.98;;
73841;SDS011;62184;52.006;5.924;2024-01-25T04:40:38;40.60;;;24.20;;
73841;SDS011;62184;52.006;5.924;2024-01-25T04:43:04;41.75;;;24.20;;
73841;SDS011;62184;52.006;5.924;2024-01-25T04:45:30;38.53;;;23.52;;
73841;SDS011;62184;52.006;5.924;2024-01-25T04:47:57;39.33;;;24.27;;
73841;SDS011;62184;52.006;5.924;2024-01-25T04:50:23;37.80;;;23.88;;
73841;SDS011;62184;52.006;5.924;2024-01-25T04:52:50;37.08;;;23.88;;
73841;SDS011;62184;52.006;5.924;2024-01-25T04:55:16;39.25;;;24.17;;
73841;SDS011;62184;52.006;5.924;2024-01-25T04:57:45;44.47;;;25.20;;
73841;SDS011;62184;52.006;5.924;2024-01-25T05:00:12;42.65;;;24.77;;
73841;SDS011;62184;52.006;5.924;2024-01-25T05:02:40;41.42;;;24.17;;
73841;SDS011;62184;52.006;5.924;2024-01-25T05:05:07;38.95;;;24.77;;
73841;SDS011;62184;52.006;5.924;2024-01-25T05:07:34;36.63;;;25.47;;
73841;SDS011;62184;52.006;5.924;2024-01-25T05:10:00;39.47;;;26.10;;
73841;SDS011;62184;52.006;5.924;2024-01-25T05:12:26;40.30;;;25.57;;
73841;SDS011;62184;52.006;5.924;2024-01-25T05:14:55;40.40;;;24.80;;
73841;SDS011;62184;52.006;5.924;2024-01-25T05:17:22;38.28;;;24.40;;
73841;SDS011;62184;52.006;5.924;2024-01-25T05:19:48;38.65;;;24.90;;
73841;SDS011;62184;52.006;5.924;2024-01-25T05:22:15;43.53;;;27.70;;
73841;SDS011;62184;52.006;5.924;2024-01-25T05:24:42;40.63;;;25.50;;
73841;SDS011;62184;52.006;5.924;2024-01-25T05:27:09;39.40;;;23.80;;
73841;SDS011;62184;52.006;5.924;2024-01-25T05:29:36;37.20;;;24.25;;
73841;SDS011;62184;52.006;5.924;2024-01-25T05:32:05;43.85;;;24.02;;
73841;SDS011;62184;52.006;5.924;2024-01-25T05:34:31;41.35;;;25.95;;
73841;SDS011;62184;52.006;5.924;2024-01-25T05:36:58;38.13;;;24.63;;
73841;SDS011;62184;52.006;5.924;2024-01-25T05:39:24;37.40;;;23.83;;
73841;SDS011;62184;52.006;5.924;2024-01-25T05:41:51;39.33;;;23.17;;
73841;SDS011;62184;52.006;5.924;2024-01-25T05:44:17;40.42;;;23.02;;
73841;SDS011;62184;52.006;5.924;2024-01-25T05:46:44;42.55;;;23.27;;
73841;SDS011;62184;52.006;5.924;2024-01-25T05:49:13;38.85;;;23.05;;
73841;SDS011;62184;52.006;5.924;2024-01-25T05:51:39;41.28;;;25.60;;
73841;SDS011;62184;52.006;5.924;2024-01-25T05:54:05;36.72;;;23.25;;
73841;SDS011;62184;52.006;5.924;2024-01-25T05:56:32;43.17;;;23.17;;
73841;SDS011;62184;52.006;5.924;2024-01-25T05:58:58;45.03;;;22.25;;
73841;SDS011;62184;52.006;5.924;2024-01-25T06:01:25;43.53;;;22.38;;
73841;SDS011;62184;52.006;5.924;2024-01-25T06:03:51;42.03;;;24.73;;
73841;SDS011;62184;52.006;5.924;2024-01-25T06:06:20;45.05;;;22.88;;
73841;SDS011;62184;52.006;5.924;2024-01-25T06:08:46;49.63;;;24.52;;
73841;SDS011;62184;52.006;5.924;2024-01-25T06:11:13;41.17;;;23.23;;
73841;SDS011;62184;52.006;5.924;2024-01-25T06:13:39;43.22;;;23.55;;
73841;SDS011;62184;52.006;5.924;2024-01-25T06:16:06;43.13;;;23.65;;
73841;SDS011;62184;52.006;5.924;2024-01-25T06:18:32;45.63;;;23.35;;
73841;SDS011;62184;52.006;5.924;2024-01-25T06:20:59;44.10;;;23.45;;
73841;SDS011;62184;52.006;5.924;2024-01-25T06:23:28;49.57;;;23.37;;
73841;SDS011;62184;52.006;5.924;2024-01-25T06:25:54;48.22;;;22.67;;
73841;SDS011;62184;52.006;5.924;2024-01-25T06:28:21;47.17;;;22.67;;
73841;SDS011;62184;52.006;5.924;2024-01-25T06:30:47;41.67;;;21.85;;
73841;SDS011;62184;52.006;5.924;2024-01-25T06:33:13;44.88;;;22.05;;
73841;SDS011;62184;52.006;5.924;2024-01-25T06:35:40;46.72;;;23.10;;
73841;SDS011;62184;52.006;5.924;2024-01-25T06:38:06;38.13;;;23.00;;
73841;SDS011;62184;52.006;5.924;2024-01-25T06:40:35;47.05;;;24.52;;
73841;SDS011;62184;52.006;5.924;2024-01-25T06:43:02;47.70;;;22.45;;
73841;SDS011;62184;52.006;5.924;2024-01-25T06:45:28;45.70;;;22.35;;
73841;SDS011;62184;52.006;5.924;2024-01-25T06:47:55;44.70;;;22.10;;
73841;SDS011;62184;52.006;5.924;2024-01-25T06:50:21;48.35;;;22.98;;
73841;SDS011;62184;52.006;5.924;2024-01-25T06:52:47;49.47;;;22.55;;
73841;SDS011;62184;52.006;5.924;2024-01-25T06:55:14;45.47;;;23.05;;
73841;SDS011;62184;52.006;5.924;2024-01-25T06:57:43;50.20;;;22.23;;
73841;SDS011;62184;52.006;5.924;2024-01-25T07:00:10;49.13;;;22.98;;
73841;SDS011;62184;52.006;5.924;2024-01-25T07:02:38;51.20;;;24.27;;
73841;SDS011;62184;52.006;5.924;2024-01-25T07:05:04;50.08;;;26.20;;
73841;SDS011;62184;52.006;5.924;2024-01-25T07:07:31;46.60;;;25.00;;
73841;SDS011;62184;52.006;5.924;2024-01-25T07:09:58;46.90;;;23.23;;
73841;SDS011;62184;52.006;5.924;2024-01-25T07:12:24;49.00;;;24.40;;
73841;SDS011;62184;52.006;5.924;2024-01-25T07:14:53;43.73;;;24.03;;
73841;SDS011;62184;52.006;5.924;2024-01-25T07:17:20;46.50;;;23.67;;
73841;SDS011;62184;52.006;5.924;2024-01-25T07:19:46;48.58;;;23.17;;
73841;SDS011;62184;52.006;5.924;2024-01-25T07:22:12;56.22;;;25.00;;
73841;SDS011;62184;52.006;5.924;2024-01-25T07:24:40;48.03;;;24.13;;
73841;SDS011;62184;52.006;5.924;2024-01-25T07:27:06;53.00;;;24.70;;
73841;SDS011;62184;52.006;5.924;2024-01-25T07:29:32;49.75;;;24.60;;
73841;SDS011;62184;52.006;5.924;2024-01-25T07:32:01;44.70;;;23.80;;
73841;SDS011;62184;52.006;5.924;2024-01-25T07:34:28;46.10;;;22.67;;
73841;SDS011;62184;52.006;5.924;2024-01-25T07:36:55;43.45;;;21.88;;
73841;SDS011;62184;52.006;5.924;2024-01-25T07:39:21;46.10;;;22.80;;
73841;SDS011;62184;52.006;5.924;2024-01-25T07:41:47;50.33;;;22.40;;
73841;SDS011;62184;52.006;5.924;2024-01-25T07:44:14;46.03;;;23.40;;
73841;SDS011;62184;52.006;5.924;2024-01-25T07:46:40;42.25;;;21.65;;
73841;SDS011;62184;52.006;5.924;2024-01-25T07:49:09;45.20;;;22.00;;
73841;SDS011;62184;52.006;5.924;2024-01-25T07:51:36;43.97;;;21.55;;
73841;SDS011;62184;52.006;5.924;2024-01-25T07:54:02;50.53;;;22.48;;
73841;SDS011;62184;52.006;5.924;2024-01-25T07:56:28;44.72;;;22.63;;
73841;SDS011;62184;52.006;5.924;2024-01-25T07:58:55;49.42;;;23.85;;
73841;SDS011;62184;52.006;5.924;2024-01-25T08:01:21;49.83;;;23.00;;
73841;SDS011;62184;52.006;5.924;2024-01-25T08:03:48;46.92;;;22.63;;
73841;SDS011;62184;52.006;5.924;2024-01-25T08:06:17;49.92;;;24.05;;
73841;SDS011;62184;52.006;5.924;2024-01-25T08:08:43;43.97;;;24.08;;
73841;SDS011;62184;52.006;5.924;2024-01-25T08:11:10;42.08;;;23.90;;
73841;SDS011;62184;52.006;5.924;2024-01-25T08:13:36;47.33;;;24.17;;
73841;SDS011;62184;52.006;5.924;2024-01-25T08:16:03;44.08;;;24.17;;
73841;SDS011;62184;52.006;5.924;2024-01-25T08:18:34;49.93;;;24.00;;
73841;SDS011;62184;52.006;5.924;2024-01-25T08:21:01;47.40;;;24.37;;
73841;SDS011;62184;52.006;5.924;2024-01-25T08:23:30;46.33;;;23.57;;
73841;SDS011;62184;52.006;5.924;2024-01-25T08:25:56;45.22;;;23.33;;
73841;SDS011;62184;52.006;5.924;2024-01-25T08:28:23;39.22;;;24.20;;
73841;SDS011;62184;52.006;5.924;2024-01-25T08:30:49;48.00;;;24.08;;
73841;SDS011;62184;52.006;5.924;2024-01-25T08:33:15;43.60;;;23.90;;
73841;SDS011;62184;52.006;5.924;2024-01-25T08:35:42;43.25;;;24.58;;
73841;SDS011;62184;52.006;5.924;2024-01-25T08:38:08;43.28;;;24.65;;
73841;SDS011;62184;52.006;5.924;2024-01-25T08:40:37;42.25;;;24.75;;
73841;SDS011;62184;52.006;5.924;2024-01-25T08:43:04;45.60;;;24.27;;
73841;SDS011;62184;52.006;5.924;2024-01-25T08:45:30;41.78;;;23.80;;
73841;SDS011;62184;52.006;5.924;2024-01-25T08:47:57;41.65;;;24.67;;
73841;SDS011;62184;52.006;5.924;2024-01-25T08:50:23;45.25;;;24.60;;
73841;SDS011;62184;52.006;5.924;2024-01-25T08:52:49;44.13;;;25.40;;
73841;SDS011;62184;52.006;5.924;2024-01-25T08:55:16;51.80;;;25.67;;
73841;SDS011;62184;52.006;5.924;2024-01-25T08:57:45;50.72;;;25.75;;
73841;SDS011;62184;52.006;5.924;2024-01-25T09:00:12;44.45;;;24.17;;
73841;SDS011;62184;52.006;5.924;2024-01-25T09:02:39;42.97;;;24.33;;
73841;SDS011;62184;52.006;5.924;2024-01-25T09:05:06;44.60;;;24.30;;
73841;SDS011;62184;52.006;5.924;2024-01-25T09:07:33;41.78;;;23.88;;
73841;SDS011;62184;52.006;5.924;2024-01-25T09:09:59;44.38;;;25.15;;
73841;SDS011;62184;52.006;5.924;2024-01-25T09:12:26;44.47;;;24.77;;
73841;SDS011;62184;52.006;5.924;2024-01-25T09:14:55;40.00;;;24.92;;
73841;SDS011;62184;52.006;5.924;2024-01-25T09:17:22;40.23;;;24.67;;
73841;SDS011;62184;52.006;5.924;2024-01-25T09:19:48;44.13;;;24.63;;
73841;SDS011;62184;52.006;5.924;2024-01-25T09:22:15;40.47;;;24.90;;
73841;SDS011;62184;52.006;5.924;2024-01-25T09:24:42;45.55;;;24.95;;
73841;SDS011;62184;52.006;5.924;2024-01-25T09:27:08;46.73;;;25.67;;
73841;SDS011;62184;52.006;5.924;2024-01-25T09:29:35;39.77;;;24.63;;
73841;SDS011;62184;52.006;5.924;2024-01-25T09:32:04;44.65;;;25.23;;
73841;SDS011;62184;52.006;5.924;2024-01-25T09:34:32;45.97;;;25.70;;
73841;SDS011;62184;52.006;5.924;2024-01-25T09:36:58;42.15;;;25.45;;
73841;SDS011;62184;52.006;5.924;2024-01-25T09:39:25;41.15;;;24.88;;
73841;SDS011;62184;52.006;5.924;2024-01-25T09:41:51;38.80;;;24.98;;
73841;SDS011;62184;52.006;5.924;2024-01-25T09:44:18;41.85;;;25.40;;
73841;SDS011;62184;52.006;5.924;2024-01-25T09:46:44;38.67;;;24.98;;
73841;SDS011;62184;52.006;5.924;2024-01-25T09:49:14;44.73;;;26.30;;
73841;SDS011;62184;52.006;5.924;2024-01-25T09:51:40;46.75;;;26.45;;
73841;SDS011;62184;52.006;5.924;2024-01-25T09:54:09;43.47;;;24.95;;
73841;SDS011;62184;52.006;5.924;2024-01-25T09:56:35;43.15;;;25.00;;
73841;SDS011;62184;52.006;5.924;2024-01-25T09:59:03;42.22;;;26.13;;
73841;SDS011;62184;52.006;5.924;2024-01-25T10:01:29;43.33;;;25.92;;
73841;SDS011;62184;52.006;5.924;2024-01-25T10:03:56;38.13;;;26.55;;
73841;SDS011;62184;52.006;5.924;2024-01-25T10:06:25;44.58;;;26.83;;
73841;SDS011;62184;52.006;5.924;2024-01-25T10:08:52;42.75;;;25.88;;
73841;SDS011;62184;52.006;5.924;2024-01-25T10:11:19;38.73;;;25.73;;
73841;SDS011;62184;52.006;5.924;2024-01-25T10:13:45;42.38;;;26.38;;
73841;SDS011;62184;52.006;5.924;2024-01-25T10:16:13;41.53;;;25.27;;
73841;SDS011;62184;52.006;5.924;2024-01-25T10:18:42;36.80;;;25.35;;
73841;SDS011;62184;52.006;5.924;2024-01-25T10:21:11;40.78;;;26.17;;
73841;SDS011;62184;52.006;5.924;2024-01-25T10:23:43;36.85;;;25.58;;
73841;SDS011;62184;52.006;5.924;2024-01-25T10:26:10;36.45;;;24.20;;
73841;SDS011;62184;52.006;5.924;2024-01-25T10:28:37;39.20;;;24.15;;
73841;SDS011;62184;52.006;5.924;2024-01-25T10:31:03;34.35;;;23.63;;
73841;SDS011;62184;52.006;5.924;2024-01-25T10:33:30;37.70;;;23.58;;
73841;SDS011;62184;52.006;5.924;2024-01-25T10:35:57;40.93;;;23.60;;
73841;SDS011;62184;52.006;5.924;2024-01-25T10:38:24;36.80;;;23.47;;
73841;SDS011;62184;52.006;5.924;2024-01-25T10:40:54;36.10;;;23.33;;
73841;SDS011;62184;52.006;5.924;2024-01-25T10:43:21;38.95;;;23.92;;
73841;SDS011;62184;52.006;5.924;2024-01-25T10:45:47;42.35;;;23.70;;
73841;SDS011;62184;52.006;5.924;2024-01-25T10:48:14;35.90;;;23.73;;
73841;SDS011;62184;52.006;5.924;2024-01-25T10:50:40;37.92;;;24.58;;
73841;SDS011;62184;52.006;5.924;2024-01-25T10:53:07;34.78;;;23.88;;
73841;SDS011;62184;52.006;5.924;2024-01-25T10:55:35;35.47;;;23.58;;
73841;SDS011;62184;52.006;5.924;2024-01-25T10:58:06;36.35;;;23.45;;
73841;SDS011;62184;52.006;5.924;2024-01-25T11:00:33;38.35;;;23.80;;
73841;SDS011;62184;52.006;5.924;2024-01-25T11:03:01;39.55;;;23.83;;
73841;SDS011;62184;52.006;5.924;2024-01-25T11:05:30;35.63;;;22.98;;
73841;SDS011;62184;52.006;5.924;2024-01-25T11:07:57;39.57;;;23.73;;
73841;SDS011;62184;52.006;5.924;2024-01-25T11:10:24;40.45;;;24.08;;
73841;SDS011;62184;52.006;5.924;2024-01-25T11:12:55;37.22;;;23.67;;
73841;SDS011;62184;52.006;5.924;2024-01-25T11:15:32;33.85;;;23.40;;
73841;SDS011;62184;52.006;5.924;2024-01-25T11:18:00;40.13;;;24.48;;
73841;SDS011;62184;52.006;5.924;2024-01-25T11:20:29;38.65;;;25.00;;
73841;SDS011;62184;52.006;5.924;2024-01-25T11:22:56;36.70;;;23.70;;
73841;SDS011;62184;52.006;5.924;2024-01-25T11:25:23;36.65;;;24.05;;
73841;SDS011;62184;52.006;5.924;2024-01-25T11:27:53;41.05;;;24.77;;
73841;SDS011;62184;52.006;5.924;2024-01-25T11:30:21;38.35;;;24.10;;
73841;SDS011;62184;52.006;5.924;2024-01-25T11:32:51;40.28;;;24.40;;
73841;SDS011;62184;52.006;5.924;2024-01-25T11:35:17;39.87;;;24.30;;
73841;SDS011;62184;52.006;5.924;2024-01-25T11:37:45;35.90;;;24.60;;
73841;SDS011;62184;52.006;5.924;2024-01-25T11:40:13;36.85;;;24.48;;
73841;SDS011;62184;52.006;5.924;2024-01-25T11:42:41;37.15;;;23.95;;
73841;SDS011;62184;52.006;5.924;2024-01-25T11:45:11;38.45;;;24.30;;
73841;SDS011;62184;52.006;5.924;2024-01-25T11:47:38;40.00;;;23.97;;
73841;SDS011;62184;52.006;5.924;2024-01-25T11:50:09;32.57;;;22.63;;
73841;SDS011;62184;52.006;5.924;2024-01-25T11:52:38;38.28;;;23.83;;
73841;SDS011;62184;52.006;5.924;2024-01-25T11:55:05;37.75;;;23.95;;
73841;SDS011;62184;52.006;5.924;2024-01-25T11:57:34;35.63;;;24.35;;
73841;SDS011;62184;52.006;5.924;2024-01-25T12:00:04;34.85;;;24.08;;
73841;SDS011;62184;52.006;5.924;2024-01-25T12:02:34;34.88;;;23.95;;
73841;SDS011;62184;52.006;5.924;2024-01-25T12:05:02;35.05;;;23.73;;
73841;SDS011;62184;52.006;5.924;2024-01-25T12:07:32;34.35;;;23.35;;
73841;SDS011;62184;52.006;5.924;2024-01-25T12:09:59;38.00;;;24.75;;
73841;SDS011;62184;52.006;5.924;2024-01-25T12:12:28;37.33;;;24.93;;
73841;SDS011;62184;52.006;5.924;2024-01-25T12:14:58;34.55;;;24.23;;
73841;SDS011;62184;52.006;5.924;2024-01-25T12:17:25;36.03;;;24.33;;
73841;SDS011;62184;52.006;5.924;2024-01-25T12:19:54;36.40;;;24.08;;
73841;SDS011;62184;52.006;5.924;2024-01-25T12:22:21;37.90;;;24.83;;
73841;SDS011;62184;52.006;5.924;2024-01-25T12:24:50;35.58;;;24.80;;
73841;SDS011;62184;52.006;5.924;2024-01-25T12:27:19;36.97;;;24.85;;
73841;SDS011;62184;52.006;5.924;2024-01-25T12:29:46;43.80;;;24.92;;
73841;SDS011;62184;52.006;5.924;2024-01-25T12:32:12;39.17;;;23.77;;
73841;SDS011;62184;52.006;5.924;2024-01-25T12:34:39;37.92;;;24.10;;
73841;SDS011;62184;52.006;5.924;2024-01-25T12:37:05;38.95;;;23.70;;
73841;SDS011;62184;52.006;5.924;2024-01-25T12:39:32;36.58;;;24.02;;
73841;SDS011;62184;52.006;5.924;2024-01-25T12:42:01;37.53;;;25.20;;
73841;SDS011;62184;52.006;5.924;2024-01-25T12:44:28;36.20;;;24.33;;
73841;SDS011;62184;52.006;5.924;2024-01-25T12:46:54;35.50;;;24.40;;
73841;SDS011;62184;52.006;5.924;2024-01-25T12:49:21;36.45;;;23.67;;
73841;SDS011;62184;52.006;5.924;2024-01-25T12:51:47;37.08;;;23.90;;
73841;SDS011;62184;52.006;5.924;2024-01-25T12:54:14;36.92;;;23.65;;
73841;SDS011;62184;52.006;5.924;2024-01-25T12:56:40;36.88;;;23.85;;
73841;SDS011;62184;52.006;5.924;2024-01-25T12:59:09;40.35;;;23.52;;
73841;SDS011;62184;52.006;5.924;2024-01-25T13:01:35;35.43;;;23.10;;
73841;SDS011;62184;52.006;5.924;2024-01-25T13:04:02;42.15;;;24.42;;
73841;SDS011;62184;52.006;5.924;2024-01-25T13:06:29;37.50;;;24.23;;
73841;SDS011;62184;52.006;5.924;2024-01-25T13:08:55;42.10;;;24.50;;
73841;SDS011;62184;52.006;5.924;2024-01-25T13:11:22;37.03;;;24.10;;
73841;SDS011;62184;52.006;5.924;2024-01-25T13:13:48;34.03;;;24.00;;
73841;SDS011;62184;52.006;5.924;2024-01-25T13:16:17;37.92;;;24.27;;
73841;SDS011;62184;52.006;5.924;2024-01-25T13:18:44;35.10;;;24.17;;
73841;SDS011;62184;52.006;5.924;2024-01-25T13:21:11;33.92;;;23.95;;
73841;SDS011;62184;52.006;5.924;2024-01-25T13:23:37;36.42;;;24.65;;
73841;SDS011;62184;52.006;5.924;2024-01-25T13:26:04;37.75;;;24.63;;
73841;SDS011;62184;52.006;5.924;2024-01-25T13:28:30;35.85;;;24.80;;
73841;SDS011;62184;52.006;5.924;2024-01-25T13:30:56;35.88;;;24.15;;
73841;SDS011;62184;52.006;5.924;2024-01-25T13:33:25;36.03;;;24.45;;
73841;SDS011;62184;52.006;5.924;2024-01-25T13:35:52;37.88;;;25.60;;
73841;SDS011;62184;52.006;5.924;2024-01-25T13:38:18;40.53;;;24.52;;
73841;SDS011;62184;52.006;5.924;2024-01-25T13:40:45;36.05;;;24.25;;
73841;SDS011;62184;52.006;5.924;2024-01-25T13:43:11;39.42;;;25.30;;
73841;SDS011;62184;52.006;5.924;2024-01-25T13:45:38;37.75;;;25.00;;
73841;SDS011;62184;52.006;5.924;2024-01-25T13:48:04;39.67;;;24.48;;
73841;SDS011;62184;52.006;5.924;2024-01-25T13:50:34;38.93;;;25.17;;
73841;SDS011;62184;52.006;5.924;2024-01-25T13:53:01;38.47;;;25.70;;
73841;SDS011;62184;52.006;5.924;2024-01-25T13:55:28;36.22;;;25.80;;
73841;SDS011;62184;52.006;5.924;2024-01-25T13:57:54;39.17;;;25.73;;
73841;SDS011;62184;52.006;5.924;2024-01-25T14:00:20;37.97;;;27.17;;
73841;SDS011;62184;52.006;5.924;2024-01-25T14:02:47;42.08;;;26.98;;
73841;SDS011;62184;52.006;5.924;2024-01-25T14:05:13;45.90;;;28.45;;
73841;SDS011;62184;52.006;5.924;2024-01-25T14:07:42;43.05;;;28.00;;
73841;SDS011;62184;52.006;5.924;2024-01-25T14:10:09;46.53;;;27.93;;
73841;SDS011;62184;52.006;5.924;2024-01-25T14:12:35;43.22;;;27.92;;
73841;SDS011;62184;52.006;5.924;2024-01-25T14:15:02;40.97;;;27.10;;
73841;SDS011;62184;52.006;5.924;2024-01-25T14:17:29;40.35;;;27.23;;
73841;SDS011;62184;52.006;5.924;2024-01-25T14:19:56;41.30;;;27.98;;